Latest Weather Observations for Townsville

IDQ60801

Issued at 9:32 am EST Monday 27 February 2017 (issued every 30 minutes, with the page automatically refreshed every 10 minutes)

About weather observations | Map of weather stations | Latest weather observations for QLD | Other Formats
Station Details ID: 032040 Name: TOWNSVILLE AERO Lat: -19.25 Lon: 146.77 Height: 4.34 m
Data from the previous 72 hours. | See also: Recent months at Townsville
Date/Time
EST
Temp
°C
App
Temp
°C
Dew
Point
°C
Rel
Hum
%
Delta-T
°C
Wind Press
QNH
hPa
Press
MSL
hPa
Rain since
9am
mm
Dir  Spd
km/h
Gust
km/h
Spd
kts
Gust
kts
27/09:00am 28.7 29.5 20.7 62 5.3 SE 17 22 9 12 1012.7 1012.6 0.0
27/08:30am 28.4 29.2 20.7 63 5.1 SE 17 24 9 13 1012.5 1012.4 0.0
27/08:00am 27.6 28.8 20.6 65 4.6 SE 15 22 8 12 1012.4 1012.3 0.0
27/07:30am 26.6 27.6 20.2 68 4.2 SSE 15 20 8 11 1012.0 1011.9 0.0
27/07:00am 24.7 26.3 21.4 82 2.2 SSW 15 19 8 10 1011.8 1011.7 0.0
27/06:30am 23.1 26.7 21.3 90 1.2 S 4 13 2 7 1011.2 1011.1 0.0
27/06:00am 23.1 27.1 21.3 90 1.2 S 2 9 1 5 1011.0 1010.9 0.0
27/05:30am 23.3 26.5 21.6 90 1.1 S 7 7 4 4 1011.0 1010.9 0.0
27/05:00am 23.5 26.5 21.2 87 1.5 SSE 7 9 4 5 1010.8 1010.7 0.0
27/04:30am 24.3 28.7 21.4 84 1.9 CALM 0 0 0 0 1010.6 1010.5 0.0
27/04:00am 24.3 28.7 21.4 84 1.9 CALM 0 0 0 0 1010.7 1010.6 0.0
27/03:30am 24.5 27.6 21.5 83 2.0 SSE 7 9 4 5 1010.6 1010.5 0.0
27/03:00am 24.5 27.7 21.6 84 1.9 SE 7 9 4 5 1010.6 1010.5 0.0
27/02:30am 24.5 27.3 21.6 84 1.9 SSE 9 9 5 5 1010.8 1010.7 0.0
27/02:00am 24.9 27.4 21.7 82 2.1 SE 11 13 6 7 1010.9 1010.8 0.0
27/01:30am 25.5 28.0 21.7 79 2.5 SE 11 13 6 7 1011.2 1011.1 0.0
27/01:00am 26.0 28.3 22.0 78 2.7 SE 13 17 7 9 1011.5 1011.4 0.0
27/12:30am 26.4 28.0 22.2 78 2.8 SSE 17 19 9 10 1011.5 1011.4 0.0
27/12:00am 26.7 28.3 22.2 76 3.0 SE 17 22 9 12 1011.5 1011.4 0.0
 
Date/Time
EST
Temp
°C
App
Temp
°C
Dew
Point
°C
Rel
Hum
%
Delta-T
°C
Wind Press
QNH
hPa
Press
MSL
hPa
Rain since
9am
mm
Dir  Spd
km/h
Gust
km/h
Spd
kts
Gust
kts
26/11:30pm 27.1 28.0 22.0 73 3.4 ESE 20 28 11 15 1011.8 1011.7 0.0
26/11:00pm 27.1 28.9 22.5 76 3.1 ESE 17 22 9 12 1011.9 1011.8 0.0
26/10:30pm 27.4 29.0 22.8 76 3.1 ESE 19 24 10 13 1011.7 1011.6 0.0
26/10:00pm 27.8 29.8 23.0 75 3.3 ESE 17 24 9 13 1011.6 1011.5 0.0
26/09:30pm 28.0 29.2 22.5 72 3.7 ESE 20 30 11 16 1011.4 1011.3 0.0
26/09:00pm 28.0 28.7 22.2 70 3.9 E 22 32 12 17 1010.9 1010.8 0.0
26/08:30pm 28.0 29.4 21.9 69 4.1 E 17 26 9 14 1010.5 1010.4 0.0
26/08:00pm 28.2 29.2 21.8 68 4.3 E 19 30 10 16 1010.3 1010.2 0.0
26/07:30pm 28.3 29.8 22.7 71 3.8 E 19 30 10 16 1009.9 1009.8 0.0
26/07:00pm 28.5 29.1 22.1 68 4.3 E 22 32 12 17 1009.6 1009.5 0.0
26/06:30pm 28.7 28.2 21.4 64 4.9 E 26 33 14 18 1009.2 1009.1 0.0
26/06:00pm 29.0 27.8 20.9 61 5.4 E 28 35 15 19 1009.0 1008.9 0.0
26/05:30pm 29.9 28.1 20.4 56 6.3 ENE 30 39 16 21 1008.9 1008.8 0.0
26/05:00pm 30.5 29.4 21.8 59 5.9 ENE 30 35 16 19 1008.9 1008.8 0.0
26/04:30pm 30.5 28.9 21.6 59 6.0 ENE 32 35 17 19 1008.6 1008.5 0.0
26/04:00pm 31.0 30.3 21.8 58 6.2 ENE 28 39 15 21 1008.5 1008.4 0.0
26/03:30pm 30.9 30.1 21.6 57 6.3 ENE 28 35 15 19 1008.4 1008.3 0.0
26/03:00pm 31.3 30.2 21.0 54 6.9 E 28 39 15 21 1008.7 1008.6 0.0
26/02:30pm 31.2 30.2 20.4 52 7.2 ENE 26 33 14 18 1008.7 1008.6 0.0
26/02:00pm 31.5 29.5 20.0 50 7.6 ENE 30 37 16 20 1009.2 1009.1 0.0
26/01:30pm 31.4 29.9 20.9 53 7.0 ENE 30 37 16 20 1009.6 1009.5 0.0
26/01:00pm 31.2 30.3 21.4 56 6.6 E 28 39 15 21 1010.1 1010.0 0.0
26/12:30pm 31.0 32.0 22.8 61 5.6 E 22 37 12 20 1010.4 1010.3 0.0
26/12:00pm 30.8 31.1 21.6 58 6.2 ESE 22 35 12 19 1010.8 1010.7 0.0
26/11:30am 30.8 30.3 21.4 57 6.3 ESE 26 35 14 19 1011.2 1011.1 0.0
26/11:00am 30.8 31.8 22.1 59 5.9 ESE 20 30 11 16 1011.3 1011.2 0.0
26/10:30am 30.0 30.5 22.0 62 5.4 ESE 22 33 12 18 1011.4 1011.3 0.0
26/10:00am 29.6 30.6 22.1 64 5.1 ESE 20 28 11 15 1011.7 1011.6 0.0
26/09:30am 29.1 29.7 22.1 66 4.7 ESE 22 30 12 16 1011.8 1011.7 0.0
26/09:00am 28.7 29.4 21.5 65 4.8 ESE 20 28 11 15 1011.8 1011.7 0.0
26/08:30am 27.9 29.7 21.9 70 4.0 SE 15 22 8 12 1011.8 1011.7 0.0
26/08:00am 27.6 29.8 21.9 71 3.8 ESE 13 17 7 9 1011.7 1011.6 0.0
26/07:30am 26.8 29.3 21.7 73 3.4 SE 11 13 6 7 1011.1 1011.0 0.0
26/07:00am 25.3 28.4 21.5 79 2.5 S 7 9 4 5 1010.7 1010.6 0.0
26/06:30am 24.1 26.4 21.4 85 1.8 SSW 11 13 6 7 1010.2 1010.1 0.0
26/06:00am 24.2 26.7 21.0 82 2.1 SSW 9 11 5 6 1010.0 1009.9 0.0
26/05:30am 23.9 28.4 21.6 87 1.5 CALM 0 2 0 1 1009.7 1009.6 0.0
26/05:00am 24.2 28.7 21.6 85 1.7 CALM 0 0 0 0 1009.5 1009.4 0.0
26/04:30am 23.8 28.0 20.9 84 1.9 CALM 0 0 0 0 1009.3 1009.2 0.0
26/04:00am 24.3 27.9 21.3 83 2.0 SSW 4 7 2 4 1009.3 1009.2 0.0
26/03:30am 24.8 27.2 20.8 78 2.6 S 9 11 5 6 1009.3 1009.2 0.0
26/03:00am 24.4 27.1 21.4 83 2.0 SSE 9 11 5 6 1009.3 1009.2 0.0
26/02:30am 24.7 27.4 21.4 82 2.2 S 9 9 5 5 1009.5 1009.4 0.0
26/02:00am 25.2 27.9 21.3 79 2.6 S 9 11 5 6 1009.7 1009.6 0.0
26/01:30am 25.4 27.8 21.5 79 2.6 S 11 13 6 7 1010.1 1010.0 0.0
26/01:00am 25.4 27.8 21.6 79 2.5 SSE 11 11 6 6 1010.4 1010.3 0.0
26/12:30am 26.0 28.0 21.5 76 3.0 SE 13 15 7 8 1010.9 1010.8 0.0
26/12:00am 26.4 28.8 21.6 75 3.2 ESE 11 17 6 9 1011.0 1010.9 0.0
 
Date/Time
EST
Temp
°C
App
Temp
°C
Dew
Point
°C
Rel
Hum
%
Delta-T
°C
Wind Press
QNH
hPa
Press
MSL
hPa
Rain since
9am
mm
Dir  Spd
km/h
Gust
km/h
Spd
kts
Gust
kts
25/11:30pm 26.8 28.8 21.5 72 3.5 SE 13 17 7 9 1011.2 1011.1 0.0
25/11:00pm 27.0 28.6 21.4 71 3.7 ESE 15 19 8 10 1011.2 1011.1 0.0
25/10:30pm 27.2 28.9 21.7 72 3.7 ESE 15 19 8 10 1011.2 1011.1 0.0
25/10:00pm 27.4 29.1 21.6 70 3.9 ESE 15 22 8 12 1011.0 1010.9 0.0
25/09:30pm 27.9 27.9 21.0 66 4.6 ESE 22 30 12 16 1010.9 1010.8 0.0
25/09:00pm 28.1 27.7 20.9 65 4.8 ESE 24 33 13 18 1010.8 1010.7 0.0
25/08:30pm 28.0 29.3 21.7 68 4.2 ESE 17 22 9 12 1010.6 1010.5 0.0
25/08:00pm 28.2 28.9 21.5 67 4.5 E 20 26 11 14 1010.5 1010.4 0.0
25/07:30pm 28.1 29.1 21.7 68 4.3 E 19 22 10 12 1010.2 1010.1 0.0
25/07:00pm 28.4 28.8 21.7 67 4.5 ENE 22 26 12 14 1009.9 1009.8 0.0
25/06:30pm 28.6 29.4 21.8 66 4.6 ENE 20 30 11 16 1009.8 1009.7 0.0
25/06:00pm 29.0 30.1 21.9 65 4.8 ENE 19 26 10 14 1009.6 1009.5 0.0
25/05:30pm 29.5 30.0 21.9 63 5.1 ENE 22 30 12 16 1009.4 1009.3 0.0
25/05:00pm 29.5 30.0 21.9 63 5.1 ENE 22 30 12 16 1009.3 1009.2 0.0
25/04:30pm 30.0 30.1 21.9 62 5.5 ENE 24 32 13 17 1009.1 1009.0 0.0
25/04:00pm 29.7 29.7 21.7 62 5.4 ENE 24 30 13 16 1009.1 1009.0 0.0
25/03:30pm 30.4 30.5 21.8 60 5.8 ENE 24 32 13 17 1009.0 1008.9 0.0
25/03:00pm 31.7 32.2 23.3 61 5.8 ENE 26 32 14 17 1009.2 1009.1 0.0
25/02:30pm 30.1 29.9 22.0 62 5.5 ENE 26 32 14 17 1009.5 1009.4 0.0
25/02:00pm 31.1 31.4 22.9 61 5.6 ENE 26 32 14 17 1009.8 1009.7 0.0
25/01:30pm 31.2 31.3 22.6 60 5.9 E 26 32 14 17 1010.1 1010.0 0.0
25/01:00pm 30.9 31.0 23.2 63 5.3 E 28 32 15 17 1010.4 1010.3 0.0
25/12:30pm 29.9 31.4 22.7 65 4.9 E 19 28 10 15 1010.9 1010.8 0.0
25/12:00pm 31.4 32.6 23.9 64 5.2 ENE 24 35 13 19 1011.3 1011.2 0.0
25/11:30am 30.5 32.5 23.6 66 4.8 ESE 19 30 10 16 1011.8 1011.7 0.0
25/11:00am 29.7 33.4 23.3 68 4.4 ENE 9 15 5 8 1012.4 1012.3 0.0
25/10:30am 28.4 32.0 23.0 72 3.7 NE 9 13 5 7 1012.7 1012.6 0.0
25/10:00am 28.1 32.2 23.0 74 3.5 ENE 6 9 3 5 1012.9 1012.8 0.0
25/09:30am 26.9 29.2 22.1 75 3.2 ENE 13 15 7 8 1013.3 1013.2 0.0
25/09:05am 27.2 28.9 22.3 74 3.3 ESE 17 37 9 20 1013.2 1013.1 0.0
25/09:00am 27.6 30.5 22.4 73 3.5 SE 11 17 6 9 1013.0 1012.9 0.0
25/08:30am 27.6 30.9 22.6 74 3.4 S 9 13 5 7 1012.8 1012.7 0.0
25/08:00am 26.2 29.0 23.6 85 1.8 S 15 19 8 10 1012.7 1012.6 0.0
25/07:30am 25.7 29.3 23.7 89 1.4 ESE 11 15 6 8 1012.7 1012.6 0.0
25/07:00am 25.1 28.2 23.5 91 1.1 ESE 13 17 7 9 1012.4 1012.3 0.0
25/06:30am 25.1 28.8 23.3 90 1.2 SSE 9 15 5 8 1012.1 1012.0 0.0
25/06:00am 25.0 29.4 22.8 87 1.5 SSE 4 9 2 5 1011.6 1011.5 0.0
25/05:30am 24.8 27.8 22.7 88 1.4 SSE 11 15 6 8 1011.3 1011.2 0.0
25/05:00am 25.1 27.3 22.6 86 1.7 ESE 15 20 8 11 1011.2 1011.1 0.0
25/04:30am 24.6 24.8 22.8 90 1.2 ESE 26 37 14 20 1011.2 1011.1 0.0
25/04:28am 24.9 25.5 22.8 88 1.4 ESE 24 37 13 20 1011.1 1011.0 0.0
25/04:00am 25.9 29.9 23.1 84 1.9 E 7 11 4 6 1010.5 1010.4 0.0
25/03:30am 26.5 28.7 23.3 82 2.2 SE 17 22 9 12 1010.7 1010.6 0.0
25/03:00am 26.7 29.3 23.3 81 2.3 SE 15 22 8 12 1010.6 1010.5 0.0
25/02:30am 26.7 30.2 23.5 82 2.2 ESE 11 13 6 7 1010.9 1010.8 0.0
25/02:00am 26.7 30.3 23.8 84 2.0 ESE 11 15 6 8 1011.1 1011.0 0.0
25/01:30am 26.7 30.4 23.9 84 1.9 SE 11 13 6 7 1011.2 1011.1 0.0
25/01:00am 26.8 30.6 24.0 84 1.9 ESE 11 15 6 8 1011.6 1011.5 0.0
25/12:30am 26.4 29.8 24.1 87 1.6 E 13 19 7 10 1011.7 1011.6 0.0
25/12:00am 27.3 30.5 23.7 81 2.5 SE 13 17 7 9 1012.1 1012.0 0.0
 
Date/Time
EST
Temp
°C
App
Temp
°C
Dew
Point
°C
Rel
Hum
%
Delta-T
°C
Wind Press
QNH
hPa
Press
MSL
hPa
Rain since
9am
mm
Dir  Spd
km/h
Gust
km/h
Spd
kts
Gust
kts
24/11:30pm 27.4 30.8 24.1 82 2.3 SE 13 17 7 9 1012.1 1012.0 0.0
24/11:00pm 27.2 30.3 24.2 84 2.1 E 15 20 8 11 1012.5 1012.4 0.0
24/10:30pm 27.6 30.2 24.0 81 2.5 ESE 17 24 9 13 1012.8 1012.7 0.0
24/10:00pm 27.3 28.2 21.6 71 3.8 ESE 19 30 10 16 1012.7 1012.6 0.0
24/09:30pm 27.9 30.9 24.0 79 2.7 SE 15 17 8 9 1012.4 1012.3 0.0
24/09:00pm 27.9 30.9 24.0 79 2.7 ESE 15 20 8 11 1012.5 1012.4 0.0
24/08:30pm 28.1 31.0 23.9 78 2.9 ESE 15 19 8 10 1012.3 1012.2 0.0
24/08:00pm 28.4 30.6 23.9 76 3.1 ESE 19 26 10 14 1011.8 1011.7 0.0
24/07:30pm 28.4 30.5 23.8 76 3.2 E 19 28 10 15 1011.4 1011.3 0.0
24/07:00pm 28.7 30.6 23.5 73 3.6 E 19 28 10 15 1011.1 1011.0 0.0
24/06:30pm 29.1 29.3 23.4 71 3.9 E 28 35 15 19 1010.9 1010.8 0.0
24/06:00pm 29.4 28.2 22.2 65 4.9 E 32 39 17 21 1010.7 1010.6 0.0
24/05:30pm 29.9 29.9 23.8 70 4.2 ESE 30 41 16 22 1010.4 1010.3 0.0
24/05:00pm 30.7 30.7 23.8 66 4.8 E 30 39 16 21 1010.2 1010.1 0.0
24/04:30pm 30.2 30.0 24.0 69 4.3 E 32 39 17 21 1010.4 1010.3 0.0
24/04:00pm 30.8 31.8 24.8 70 4.2 ENE 28 35 15 19 1010.3 1010.2 0.0
24/03:30pm 31.1 30.8 23.8 65 5.1 ENE 32 37 17 20 1010.2 1010.1 0.0
24/03:00pm 31.3 32.5 25.1 69 4.4 ENE 28 33 15 18 1010.3 1010.2 0.0
24/02:30pm 30.6 31.3 23.7 66 4.8 ENE 26 32 14 17 1010.8 1010.7 0.0
24/02:00pm 31.3 32.2 24.0 65 5.1 ENE 26 33 14 18 1011.2 1011.1 0.0
24/01:30pm 31.3 31.3 23.0 61 5.7 ENE 28 35 15 19 1011.4 1011.3 0.0
24/01:00pm 31.6 33.0 23.5 62 5.6 ENE 22 30 12 16 1011.8 1011.7 0.0
24/12:30pm 31.8 33.1 23.3 60 5.9 ENE 22 30 12 16 1012.3 1012.2 0.0
24/12:00pm 31.4 33.1 23.0 61 5.8 E 19 28 10 15 1012.8 1012.7 0.0
24/11:30am 30.9 32.8 22.7 61 5.6 ESE 17 28 9 15 1013.4 1013.3 0.0
24/11:00am 31.1 32.0 23.3 63 5.4 ENE 24 32 13 17 1013.8 1013.7 0.0
24/10:30am 31.2 33.3 23.7 64 5.2 ESE 19 28 10 15 1013.9 1013.8 0.0
24/10:00am 30.5 31.4 22.7 63 5.3 ESE 22 32 12 17 1014.0 1013.9 0.0

Other Formats:

Comma delimited format used in spreadsheet applications
http://www.bom.gov.au/fwo/IDQ60801/IDQ60801.94294.axf

JavaScript Object Notation format (JSON) in row-major order
http://www.bom.gov.au/fwo/IDQ60801/IDQ60801.94294.json